sensor_id;sensor_type;location;lat;lon;timestamp;P1;durP1;ratioP1;P2;durP2;ratioP2
28910;SDS011;16028;42.642;23.310;2023-08-01T00:02:28;3.30;;;2.60;;
28910;SDS011;16028;42.642;23.310;2023-08-01T00:04:55;3.05;;;2.40;;
28910;SDS011;16028;42.642;23.310;2023-08-01T00:07:23;2.75;;;2.30;;
28910;SDS011;16028;42.642;23.310;2023-08-01T00:09:50;2.60;;;2.40;;
28910;SDS011;16028;42.642;23.310;2023-08-01T00:12:17;3.47;;;2.42;;
28910;SDS011;16028;42.642;23.310;2023-08-01T00:14:44;3.50;;;2.47;;
28910;SDS011;16028;42.642;23.310;2023-08-01T00:17:11;4.68;;;2.40;;
28910;SDS011;16028;42.642;23.310;2023-08-01T00:19:38;6.68;;;3.50;;
28910;SDS011;16028;42.642;23.310;2023-08-01T00:22:05;2.33;;;2.13;;
28910;SDS011;16028;42.642;23.310;2023-08-01T00:24:35;5.07;;;2.40;;
28910;SDS011;16028;42.642;23.310;2023-08-01T00:27:02;2.40;;;2.20;;
28910;SDS011;16028;42.642;23.310;2023-08-01T00:29:30;2.92;;;2.20;;
28910;SDS011;16028;42.642;23.310;2023-08-01T00:31:59;2.70;;;2.50;;
28910;SDS011;16028;42.642;23.310;2023-08-01T00:34:26;2.58;;;2.33;;
28910;SDS011;16028;42.642;23.310;2023-08-01T00:36:56;4.70;;;2.50;;
28910;SDS011;16028;42.642;23.310;2023-08-01T00:39:32;2.88;;;2.63;;
28910;SDS011;16028;42.642;23.310;2023-08-01T00:42:04;4.50;;;2.10;;
28910;SDS011;16028;42.642;23.310;2023-08-01T00:44:31;3.38;;;2.80;;
28910;SDS011;16028;42.642;23.310;2023-08-01T00:47:03;2.67;;;2.47;;
28910;SDS011;16028;42.642;23.310;2023-08-01T00:49:30;3.20;;;2.50;;
28910;SDS011;16028;42.642;23.310;2023-08-01T00:52:01;2.70;;;2.35;;
28910;SDS011;16028;42.642;23.310;2023-08-01T00:54:31;2.67;;;2.42;;
28910;SDS011;16028;42.642;23.310;2023-08-01T00:57:04;3.20;;;2.45;;
28910;SDS011;16028;42.642;23.310;2023-08-01T00:59:31;3.05;;;2.63;;
28910;SDS011;16028;42.642;23.310;2023-08-01T01:02:00;3.58;;;2.50;;
28910;SDS011;16028;42.642;23.310;2023-08-01T01:04:36;2.85;;;2.25;;
28910;SDS011;16028;42.642;23.310;2023-08-01T01:07:05;2.95;;;2.65;;
28910;SDS011;16028;42.642;23.310;2023-08-01T01:09:33;5.93;;;2.60;;
28910;SDS011;16028;42.642;23.310;2023-08-01T01:12:00;4.30;;;2.80;;
28910;SDS011;16028;42.642;23.310;2023-08-01T01:14:29;3.17;;;2.38;;
28910;SDS011;16028;42.642;23.310;2023-08-01T01:16:56;4.55;;;2.45;;
28910;SDS011;16028;42.642;23.310;2023-08-01T01:19:24;5.25;;;2.80;;
28910;SDS011;16028;42.642;23.310;2023-08-01T01:21:55;2.50;;;2.30;;
28910;SDS011;16028;42.642;23.310;2023-08-01T01:24:23;2.90;;;2.60;;
28910;SDS011;16028;42.642;23.310;2023-08-01T01:26:52;2.67;;;2.47;;
28910;SDS011;16028;42.642;23.310;2023-08-01T01:29:20;3.58;;;2.63;;
28910;SDS011;16028;42.642;23.310;2023-08-01T01:31:51;4.10;;;2.83;;
28910;SDS011;16028;42.642;23.310;2023-08-01T01:34:58;4.32;;;2.60;;
28910;SDS011;16028;42.642;23.310;2023-08-01T01:37:52;2.95;;;2.47;;
28910;SDS011;16028;42.642;23.310;2023-08-01T01:40:20;3.17;;;2.60;;
28910;SDS011;16028;42.642;23.310;2023-08-01T01:42:47;3.75;;;2.78;;
28910;SDS011;16028;42.642;23.310;2023-08-01T01:45:14;2.70;;;2.50;;
28910;SDS011;16028;42.642;23.310;2023-08-01T01:47:41;3.15;;;2.55;;
28910;SDS011;16028;42.642;23.310;2023-08-01T01:50:08;3.72;;;2.50;;
28910;SDS011;16028;42.642;23.310;2023-08-01T01:52:36;3.58;;;2.72;;
28910;SDS011;16028;42.642;23.310;2023-08-01T01:55:04;5.10;;;2.85;;
28910;SDS011;16028;42.642;23.310;2023-08-01T01:57:31;2.75;;;2.53;;
28910;SDS011;16028;42.642;23.310;2023-08-01T02:00:07;2.60;;;2.40;;
28910;SDS011;16028;42.642;23.310;2023-08-01T02:02:36;2.88;;;2.58;;
28910;SDS011;16028;42.642;23.310;2023-08-01T02:05:03;4.25;;;2.72;;
28910;SDS011;16028;42.642;23.310;2023-08-01T02:07:31;2.90;;;2.60;;
28910;SDS011;16028;42.642;23.310;2023-08-01T02:09:58;3.40;;;2.78;;
28910;SDS011;16028;42.642;23.310;2023-08-01T02:12:27;3.88;;;2.83;;
28910;SDS011;16028;42.642;23.310;2023-08-01T02:14:56;4.88;;;2.90;;
28910;SDS011;16028;42.642;23.310;2023-08-01T02:17:26;4.60;;;2.55;;
28910;SDS011;16028;42.642;23.310;2023-08-01T02:19:53;3.13;;;2.80;;
28910;SDS011;16028;42.642;23.310;2023-08-01T02:22:20;5.60;;;2.58;;
28910;SDS011;16028;42.642;23.310;2023-08-01T02:24:47;2.60;;;2.40;;
28910;SDS011;16028;42.642;23.310;2023-08-01T02:27:13;3.20;;;2.58;;
28910;SDS011;16028;42.642;23.310;2023-08-01T02:29:42;4.28;;;2.75;;
28910;SDS011;16028;42.642;23.310;2023-08-01T02:32:09;4.55;;;2.55;;
28910;SDS011;16028;42.642;23.310;2023-08-01T02:34:36;2.95;;;2.75;;
28910;SDS011;16028;42.642;23.310;2023-08-01T02:37:03;3.30;;;2.45;;
28910;SDS011;16028;42.642;23.310;2023-08-01T02:39:30;6.10;;;2.50;;
28910;SDS011;16028;42.642;23.310;2023-08-01T02:41:57;10.77;;;3.53;;
28910;SDS011;16028;42.642;23.310;2023-08-01T02:44:24;4.55;;;3.08;;
28910;SDS011;16028;42.642;23.310;2023-08-01T02:46:54;8.95;;;2.70;;
28910;SDS011;16028;42.642;23.310;2023-08-01T02:49:21;13.32;;;3.60;;
28910;SDS011;16028;42.642;23.310;2023-08-01T02:51:48;6.65;;;2.65;;
28910;SDS011;16028;42.642;23.310;2023-08-01T02:54:15;3.65;;;2.80;;
28910;SDS011;16028;42.642;23.310;2023-08-01T02:56:42;2.67;;;2.42;;
28910;SDS011;16028;42.642;23.310;2023-08-01T02:59:08;3.65;;;2.58;;
28910;SDS011;16028;42.642;23.310;2023-08-01T03:01:36;2.83;;;2.63;;
28910;SDS011;16028;42.642;23.310;2023-08-01T03:04:06;5.38;;;2.35;;
28910;SDS011;16028;42.642;23.310;2023-08-01T03:06:33;3.00;;;2.45;;
28910;SDS011;16028;42.642;23.310;2023-08-01T03:09:03;3.92;;;2.63;;
28910;SDS011;16028;42.642;23.310;2023-08-01T03:11:33;7.90;;;2.60;;
28910;SDS011;16028;42.642;23.310;2023-08-01T03:14:00;4.57;;;3.00;;
28910;SDS011;16028;42.642;23.310;2023-08-01T03:16:26;3.08;;;2.55;;
28910;SDS011;16028;42.642;23.310;2023-08-01T03:18:53;3.75;;;2.55;;
28910;SDS011;16028;42.642;23.310;2023-08-01T03:21:21;3.15;;;2.42;;
28910;SDS011;16028;42.642;23.310;2023-08-01T03:23:48;4.03;;;3.15;;
28910;SDS011;16028;42.642;23.310;2023-08-01T03:26:15;6.97;;;2.90;;
28910;SDS011;16028;42.642;23.310;2023-08-01T03:28:43;4.43;;;2.80;;
28910;SDS011;16028;42.642;23.310;2023-08-01T03:31:10;3.85;;;2.95;;
28910;SDS011;16028;42.642;23.310;2023-08-01T03:33:37;4.50;;;2.75;;
28910;SDS011;16028;42.642;23.310;2023-08-01T03:36:04;6.47;;;3.10;;
28910;SDS011;16028;42.642;23.310;2023-08-01T03:38:32;3.75;;;3.10;;
28910;SDS011;16028;42.642;23.310;2023-08-01T03:40:59;5.63;;;2.88;;
28910;SDS011;16028;42.642;23.310;2023-08-01T03:43:26;3.00;;;2.70;;
28910;SDS011;16028;42.642;23.310;2023-08-01T03:45:53;5.13;;;3.13;;
28910;SDS011;16028;42.642;23.310;2023-08-01T03:48:20;5.97;;;2.60;;
28910;SDS011;16028;42.642;23.310;2023-08-01T03:50:50;3.40;;;2.90;;
28910;SDS011;16028;42.642;23.310;2023-08-01T03:53:16;11.15;;;3.17;;
28910;SDS011;16028;42.642;23.310;2023-08-01T03:55:46;6.05;;;3.63;;
28910;SDS011;16028;42.642;23.310;2023-08-01T03:58:14;6.53;;;3.47;;
28910;SDS011;16028;42.642;23.310;2023-08-01T04:00:41;13.98;;;3.33;;
28910;SDS011;16028;42.642;23.310;2023-08-01T04:03:08;5.43;;;2.90;;
28910;SDS011;16028;42.642;23.310;2023-08-01T04:05:35;5.72;;;3.47;;
28910;SDS011;16028;42.642;23.310;2023-08-01T04:08:01;6.07;;;3.30;;
28910;SDS011;16028;42.642;23.310;2023-08-01T04:10:31;6.10;;;3.17;;
28910;SDS011;16028;42.642;23.310;2023-08-01T04:12:59;6.50;;;3.33;;
28910;SDS011;16028;42.642;23.310;2023-08-01T04:15:26;6.97;;;3.65;;
28910;SDS011;16028;42.642;23.310;2023-08-01T04:17:53;8.82;;;4.25;;
28910;SDS011;16028;42.642;23.310;2023-08-01T04:20:20;8.00;;;5.05;;
28910;SDS011;16028;42.642;23.310;2023-08-01T04:22:47;8.90;;;5.43;;
28910;SDS011;16028;42.642;23.310;2023-08-01T04:25:14;12.13;;;8.75;;
28910;SDS011;16028;42.642;23.310;2023-08-01T04:27:41;8.07;;;5.78;;
28910;SDS011;16028;42.642;23.310;2023-08-01T04:30:09;9.65;;;6.68;;
28910;SDS011;16028;42.642;23.310;2023-08-01T04:32:37;9.88;;;7.07;;
28910;SDS011;16028;42.642;23.310;2023-08-01T04:35:04;17.75;;;11.60;;
28910;SDS011;16028;42.642;23.310;2023-08-01T04:37:31;8.18;;;7.35;;
28910;SDS011;16028;42.642;23.310;2023-08-01T04:39:58;11.15;;;7.60;;
28910;SDS011;16028;42.642;23.310;2023-08-01T04:42:25;13.23;;;7.60;;
28910;SDS011;16028;42.642;23.310;2023-08-01T04:44:54;9.68;;;7.22;;
28910;SDS011;16028;42.642;23.310;2023-08-01T04:47:23;11.25;;;6.93;;
28910;SDS011;16028;42.642;23.310;2023-08-01T04:49:50;8.43;;;6.78;;
28910;SDS011;16028;42.642;23.310;2023-08-01T04:52:16;8.00;;;6.60;;
28910;SDS011;16028;42.642;23.310;2023-08-01T04:54:43;8.27;;;6.55;;
28910;SDS011;16028;42.642;23.310;2023-08-01T04:57:10;12.30;;;7.57;;
28910;SDS011;16028;42.642;23.310;2023-08-01T04:59:37;13.73;;;7.53;;
28910;SDS011;16028;42.642;23.310;2023-08-01T05:02:04;12.07;;;8.45;;
28910;SDS011;16028;42.642;23.310;2023-08-01T05:04:32;14.05;;;7.40;;
28910;SDS011;16028;42.642;23.310;2023-08-01T05:06:59;8.63;;;7.38;;
28910;SDS011;16028;42.642;23.310;2023-08-01T05:09:26;8.18;;;6.60;;
28910;SDS011;16028;42.642;23.310;2023-08-01T05:11:53;21.38;;;6.60;;
28910;SDS011;16028;42.642;23.310;2023-08-01T05:14:20;9.23;;;6.50;;
28910;SDS011;16028;42.642;23.310;2023-08-01T05:16:46;9.55;;;6.28;;
28910;SDS011;16028;42.642;23.310;2023-08-01T05:19:16;9.45;;;5.97;;
28910;SDS011;16028;42.642;23.310;2023-08-01T05:21:45;12.90;;;6.85;;
28910;SDS011;16028;42.642;23.310;2023-08-01T05:24:12;14.45;;;7.40;;
28910;SDS011;16028;42.642;23.310;2023-08-01T05:26:44;10.05;;;6.75;;
28910;SDS011;16028;42.642;23.310;2023-08-01T05:29:11;8.80;;;6.15;;
28910;SDS011;16028;42.642;23.310;2023-08-01T05:31:37;11.63;;;5.47;;
28910;SDS011;16028;42.642;23.310;2023-08-01T05:34:04;9.40;;;5.47;;
28910;SDS011;16028;42.642;23.310;2023-08-01T05:36:31;9.20;;;5.40;;
28910;SDS011;16028;42.642;23.310;2023-08-01T05:38:59;10.30;;;5.05;;
28910;SDS011;16028;42.642;23.310;2023-08-01T05:41:26;7.07;;;4.63;;
28910;SDS011;16028;42.642;23.310;2023-08-01T05:43:53;5.90;;;4.90;;
28910;SDS011;16028;42.642;23.310;2023-08-01T05:46:19;5.70;;;5.10;;
28910;SDS011;16028;42.642;23.310;2023-08-01T05:48:46;8.55;;;4.55;;
28910;SDS011;16028;42.642;23.310;2023-08-01T05:51:13;12.32;;;4.53;;
28910;SDS011;16028;42.642;23.310;2023-08-01T05:53:40;7.13;;;4.63;;
28910;SDS011;16028;42.642;23.310;2023-08-01T05:56:08;9.27;;;5.05;;
28910;SDS011;16028;42.642;23.310;2023-08-01T05:58:35;7.15;;;4.28;;
28910;SDS011;16028;42.642;23.310;2023-08-01T06:01:01;4.88;;;3.53;;
28910;SDS011;16028;42.642;23.310;2023-08-01T06:03:29;5.88;;;3.85;;
28910;SDS011;16028;42.642;23.310;2023-08-01T06:05:55;21.95;;;17.85;;
28910;SDS011;16028;42.642;23.310;2023-08-01T06:08:22;7.25;;;3.90;;
28910;SDS011;16028;42.642;23.310;2023-08-01T06:10:49;11.70;;;3.65;;
28910;SDS011;16028;42.642;23.310;2023-08-01T06:13:17;3.97;;;3.33;;
28910;SDS011;16028;42.642;23.310;2023-08-01T06:15:45;8.80;;;4.13;;
28910;SDS011;16028;42.642;23.310;2023-08-01T06:18:12;4.50;;;3.83;;
28910;SDS011;16028;42.642;23.310;2023-08-01T06:20:39;6.40;;;4.10;;
28910;SDS011;16028;42.642;23.310;2023-08-01T06:23:06;7.55;;;3.95;;
28910;SDS011;16028;42.642;23.310;2023-08-01T06:25:33;8.98;;;4.00;;
28910;SDS011;16028;42.642;23.310;2023-08-01T06:28:01;7.60;;;4.00;;
28910;SDS011;16028;42.642;23.310;2023-08-01T06:30:29;7.40;;;3.75;;
28910;SDS011;16028;42.642;23.310;2023-08-01T06:32:56;4.40;;;3.20;;
28910;SDS011;16028;42.642;23.310;2023-08-01T06:35:23;3.85;;;3.17;;
28910;SDS011;16028;42.642;23.310;2023-08-01T06:37:50;12.07;;;3.40;;
28910;SDS011;16028;42.642;23.310;2023-08-01T06:40:16;5.47;;;3.50;;
28910;SDS011;16028;42.642;23.310;2023-08-01T06:42:43;6.50;;;2.80;;
28910;SDS011;16028;42.642;23.310;2023-08-01T06:45:10;5.07;;;3.25;;
28910;SDS011;16028;42.642;23.310;2023-08-01T06:47:38;4.03;;;3.00;;
28910;SDS011;16028;42.642;23.310;2023-08-01T06:50:05;7.82;;;3.38;;
28910;SDS011;16028;42.642;23.310;2023-08-01T06:52:32;9.30;;;3.63;;
28910;SDS011;16028;42.642;23.310;2023-08-01T06:54:59;4.82;;;3.20;;
28910;SDS011;16028;42.642;23.310;2023-08-01T06:57:26;7.65;;;3.50;;
28910;SDS011;16028;42.642;23.310;2023-08-01T06:59:53;6.90;;;3.28;;
28910;SDS011;16028;42.642;23.310;2023-08-01T07:02:20;5.40;;;3.83;;
28910;SDS011;16028;42.642;23.310;2023-08-01T07:04:48;4.55;;;3.30;;
28910;SDS011;16028;42.642;23.310;2023-08-01T07:07:15;8.55;;;4.00;;
28910;SDS011;16028;42.642;23.310;2023-08-01T07:09:42;5.95;;;3.60;;
28910;SDS011;16028;42.642;23.310;2023-08-01T07:12:09;5.90;;;3.20;;
28910;SDS011;16028;42.642;23.310;2023-08-01T07:14:35;8.18;;;3.40;;
28910;SDS011;16028;42.642;23.310;2023-08-01T07:17:02;4.28;;;3.35;;
28910;SDS011;16028;42.642;23.310;2023-08-01T07:19:29;4.05;;;3.30;;
28910;SDS011;16028;42.642;23.310;2023-08-01T07:21:58;6.80;;;3.35;;
28910;SDS011;16028;42.642;23.310;2023-08-01T07:24:24;5.78;;;3.75;;
28910;SDS011;16028;42.642;23.310;2023-08-01T07:26:51;3.78;;;3.45;;
28910;SDS011;16028;42.642;23.310;2023-08-01T07:29:18;5.03;;;3.15;;
28910;SDS011;16028;42.642;23.310;2023-08-01T07:31:44;8.73;;;3.50;;
28910;SDS011;16028;42.642;23.310;2023-08-01T07:34:11;8.23;;;3.30;;
28910;SDS011;16028;42.642;23.310;2023-08-01T07:36:38;8.07;;;4.10;;
28910;SDS011;16028;42.642;23.310;2023-08-01T07:39:06;8.93;;;3.60;;
28910;SDS011;16028;42.642;23.310;2023-08-01T07:41:33;6.45;;;3.25;;
28910;SDS011;16028;42.642;23.310;2023-08-01T07:44:00;9.63;;;3.75;;
28910;SDS011;16028;42.642;23.310;2023-08-01T07:46:27;8.45;;;3.90;;
28910;SDS011;16028;42.642;23.310;2023-08-01T07:48:54;6.30;;;3.53;;
28910;SDS011;16028;42.642;23.310;2023-08-01T07:51:21;5.80;;;3.58;;
28910;SDS011;16028;42.642;23.310;2023-08-01T07:53:47;8.80;;;3.33;;
28910;SDS011;16028;42.642;23.310;2023-08-01T07:56:18;7.30;;;3.95;;
28910;SDS011;16028;42.642;23.310;2023-08-01T07:58:45;10.73;;;3.33;;
28910;SDS011;16028;42.642;23.310;2023-08-01T08:01:11;7.28;;;3.88;;
28910;SDS011;16028;42.642;23.310;2023-08-01T08:03:38;9.30;;;3.72;;
28910;SDS011;16028;42.642;23.310;2023-08-01T08:06:05;9.85;;;4.38;;
28910;SDS011;16028;42.642;23.310;2023-08-01T08:08:32;6.32;;;4.22;;
28910;SDS011;16028;42.642;23.310;2023-08-01T09:48:33;4.90;;;4.40;;
28910;SDS011;16028;42.642;23.310;2023-08-01T09:51:04;8.23;;;4.50;;
28910;SDS011;16028;42.642;23.310;2023-08-01T09:53:35;8.13;;;4.60;;
28910;SDS011;16028;42.642;23.310;2023-08-01T09:56:02;4.85;;;4.35;;
28910;SDS011;16028;42.642;23.310;2023-08-01T09:58:31;7.07;;;4.55;;
28910;SDS011;16028;42.642;23.310;2023-08-01T10:00:59;8.32;;;5.15;;
28910;SDS011;16028;42.642;23.310;2023-08-01T10:03:27;6.05;;;4.30;;
28910;SDS011;16028;42.642;23.310;2023-08-01T10:05:58;7.18;;;4.47;;
28910;SDS011;16028;42.642;23.310;2023-08-01T10:08:25;6.80;;;4.68;;
28910;SDS011;16028;42.642;23.310;2023-08-01T10:10:53;5.03;;;4.45;;
28910;SDS011;16028;42.642;23.310;2023-08-01T10:13:22;8.70;;;4.72;;
28910;SDS011;16028;42.642;23.310;2023-08-01T10:15:49;7.45;;;4.43;;
28910;SDS011;16028;42.642;23.310;2023-08-01T10:18:17;6.57;;;4.95;;
28910;SDS011;16028;42.642;23.310;2023-08-01T10:20:44;5.75;;;4.53;;
28910;SDS011;16028;42.642;23.310;2023-08-01T10:23:14;6.35;;;4.93;;
28910;SDS011;16028;42.642;23.310;2023-08-01T10:25:41;8.02;;;4.45;;
28910;SDS011;16028;42.642;23.310;2023-08-01T10:28:09;4.93;;;4.38;;
28910;SDS011;16028;42.642;23.310;2023-08-01T10:30:36;5.78;;;4.57;;
28910;SDS011;16028;42.642;23.310;2023-08-01T10:33:03;7.38;;;4.80;;
28910;SDS011;16028;42.642;23.310;2023-08-01T10:35:33;10.32;;;4.60;;
28910;SDS011;16028;42.642;23.310;2023-08-01T10:38:04;8.05;;;5.13;;
28910;SDS011;16028;42.642;23.310;2023-08-01T10:40:37;9.10;;;5.15;;
28910;SDS011;16028;42.642;23.310;2023-08-01T10:43:05;6.27;;;4.20;;
28910;SDS011;16028;42.642;23.310;2023-08-01T10:45:32;5.82;;;4.45;;
28910;SDS011;16028;42.642;23.310;2023-08-01T10:48:08;5.93;;;4.28;;
28910;SDS011;16028;42.642;23.310;2023-08-01T10:50:35;6.70;;;4.15;;
28910;SDS011;16028;42.642;23.310;2023-08-01T10:53:06;5.15;;;4.10;;
28910;SDS011;16028;42.642;23.310;2023-08-01T10:55:42;7.60;;;4.25;;
28910;SDS011;16028;42.642;23.310;2023-08-01T10:58:10;6.50;;;3.95;;
28910;SDS011;16028;42.642;23.310;2023-08-01T11:00:37;6.45;;;4.50;;
28910;SDS011;16028;42.642;23.310;2023-08-01T11:03:04;4.63;;;4.10;;
28910;SDS011;16028;42.642;23.310;2023-08-01T11:05:31;6.50;;;4.78;;
28910;SDS011;16028;42.642;23.310;2023-08-01T11:07:58;5.57;;;4.43;;
28910;SDS011;16028;42.642;23.310;2023-08-01T11:10:27;7.68;;;4.40;;
28910;SDS011;16028;42.642;23.310;2023-08-01T11:12:56;6.90;;;4.18;;
28910;SDS011;16028;42.642;23.310;2023-08-01T11:15:25;6.40;;;4.43;;
28910;SDS011;16028;42.642;23.310;2023-08-01T11:17:54;5.68;;;4.75;;
28910;SDS011;16028;42.642;23.310;2023-08-01T11:20:21;9.27;;;4.43;;
28910;SDS011;16028;42.642;23.310;2023-08-01T11:22:50;5.47;;;4.53;;
28910;SDS011;16028;42.642;23.310;2023-08-01T11:25:19;5.43;;;4.53;;
28910;SDS011;16028;42.642;23.310;2023-08-01T11:31:15;8.95;;;4.45;;
28910;SDS011;16028;42.642;23.310;2023-08-01T11:33:42;4.95;;;4.30;;
28910;SDS011;16028;42.642;23.310;2023-08-01T11:36:21;6.97;;;4.63;;
28910;SDS011;16028;42.642;23.310;2023-08-01T11:38:51;6.38;;;4.57;;
28910;SDS011;16028;42.642;23.310;2023-08-01T11:41:18;4.80;;;4.10;;
28910;SDS011;16028;42.642;23.310;2023-08-01T11:43:45;5.18;;;4.18;;
28910;SDS011;16028;42.642;23.310;2023-08-01T11:46:11;4.68;;;4.15;;
28910;SDS011;16028;42.642;23.310;2023-08-01T11:48:43;6.18;;;3.95;;
28910;SDS011;16028;42.642;23.310;2023-08-01T11:51:10;4.72;;;4.28;;
28910;SDS011;16028;42.642;23.310;2023-08-01T11:53:38;6.15;;;4.15;;
28910;SDS011;16028;42.642;23.310;2023-08-01T11:56:04;6.07;;;3.97;;
28910;SDS011;16028;42.642;23.310;2023-08-01T11:58:32;5.95;;;3.85;;
28910;SDS011;16028;42.642;23.310;2023-08-01T12:01:01;11.57;;;4.50;;
28910;SDS011;16028;42.642;23.310;2023-08-01T12:03:29;8.15;;;4.63;;
28910;SDS011;16028;42.642;23.310;2023-08-01T12:06:05;9.60;;;4.30;;
28910;SDS011;16028;42.642;23.310;2023-08-01T12:08:33;5.15;;;3.83;;
28910;SDS011;16028;42.642;23.310;2023-08-01T12:11:00;13.63;;;3.97;;
28910;SDS011;16028;42.642;23.310;2023-08-01T12:13:27;6.05;;;4.20;;
28910;SDS011;16028;42.642;23.310;2023-08-01T12:15:55;5.35;;;3.47;;
28910;SDS011;16028;42.642;23.310;2023-08-01T12:18:22;4.28;;;3.65;;
28910;SDS011;16028;42.642;23.310;2023-08-01T12:20:49;4.15;;;3.35;;
28910;SDS011;16028;42.642;23.310;2023-08-01T12:23:18;4.57;;;3.90;;
28910;SDS011;16028;42.642;23.310;2023-08-01T12:25:44;5.32;;;3.65;;
28910;SDS011;16028;42.642;23.310;2023-08-01T12:28:12;10.55;;;3.58;;
28910;SDS011;16028;42.642;23.310;2023-08-01T12:30:44;5.78;;;3.28;;
28910;SDS011;16028;42.642;23.310;2023-08-01T12:33:10;5.93;;;5.20;;
28910;SDS011;16028;42.642;23.310;2023-08-01T12:35:38;7.60;;;4.22;;
28910;SDS011;16028;42.642;23.310;2023-08-01T12:38:06;5.57;;;3.65;;
28910;SDS011;16028;42.642;23.310;2023-08-01T12:40:34;4.00;;;3.60;;
28910;SDS011;16028;42.642;23.310;2023-08-01T12:43:02;4.95;;;3.83;;
28910;SDS011;16028;42.642;23.310;2023-08-01T12:45:30;6.50;;;3.55;;
28910;SDS011;16028;42.642;23.310;2023-08-01T12:47:57;4.22;;;2.92;;
28910;SDS011;16028;42.642;23.310;2023-08-01T12:50:24;5.55;;;3.45;;
28910;SDS011;16028;42.642;23.310;2023-08-01T12:52:50;8.77;;;3.42;;
28910;SDS011;16028;42.642;23.310;2023-08-01T12:55:17;7.15;;;3.70;;
28910;SDS011;16028;42.642;23.310;2023-08-01T12:57:45;6.00;;;2.55;;
28910;SDS011;16028;42.642;23.310;2023-08-01T13:00:12;3.63;;;2.58;;
28910;SDS011;16028;42.642;23.310;2023-08-01T13:02:39;4.03;;;2.40;;
28910;SDS011;16028;42.642;23.310;2023-08-01T13:05:06;2.97;;;2.60;;
28910;SDS011;16028;42.642;23.310;2023-08-01T13:07:33;4.35;;;2.80;;
28910;SDS011;16028;42.642;23.310;2023-08-01T13:10:00;3.45;;;2.58;;
28910;SDS011;16028;42.642;23.310;2023-08-01T13:12:27;9.05;;;2.35;;
28910;SDS011;16028;42.642;23.310;2023-08-01T13:14:55;7.60;;;2.67;;
28910;SDS011;16028;42.642;23.310;2023-08-01T13:17:22;5.32;;;2.80;;
28910;SDS011;16028;42.642;23.310;2023-08-01T13:19:49;3.17;;;2.40;;
28910;SDS011;16028;42.642;23.310;2023-08-01T13:22:16;3.40;;;2.75;;
28910;SDS011;16028;42.642;23.310;2023-08-01T13:24:44;2.80;;;2.50;;
28910;SDS011;16028;42.642;23.310;2023-08-01T13:27:11;2.88;;;2.30;;
28910;SDS011;16028;42.642;23.310;2023-08-01T13:29:38;4.57;;;2.50;;
28910;SDS011;16028;42.642;23.310;2023-08-01T13:32:07;4.85;;;2.38;;
28910;SDS011;16028;42.642;23.310;2023-08-01T13:34:34;4.57;;;3.00;;
28910;SDS011;16028;42.642;23.310;2023-08-01T13:37:00;2.88;;;2.67;;
28910;SDS011;16028;42.642;23.310;2023-08-01T13:39:27;5.03;;;2.50;;
28910;SDS011;16028;42.642;23.310;2023-08-01T13:41:54;3.60;;;2.85;;
28910;SDS011;16028;42.642;23.310;2023-08-01T13:44:21;5.55;;;2.75;;
28910;SDS011;16028;42.642;23.310;2023-08-01T13:46:47;4.30;;;2.50;;
28910;SDS011;16028;42.642;23.310;2023-08-01T13:49:15;6.10;;;2.90;;
28910;SDS011;16028;42.642;23.310;2023-08-01T13:51:42;3.00;;;2.60;;
28910;SDS011;16028;42.642;23.310;2023-08-01T13:54:09;8.50;;;2.65;;
28910;SDS011;16028;42.642;23.310;2023-08-01T13:56:36;2.67;;;2.33;;
28910;SDS011;16028;42.642;23.310;2023-08-01T13:59:03;3.42;;;2.67;;
28910;SDS011;16028;42.642;23.310;2023-08-01T14:01:29;4.07;;;2.70;;
28910;SDS011;16028;42.642;23.310;2023-08-01T14:03:56;4.00;;;2.70;;
28910;SDS011;16028;42.642;23.310;2023-08-01T14:06:24;5.47;;;2.80;;
28910;SDS011;16028;42.642;23.310;2023-08-01T14:08:51;6.00;;;2.80;;
28910;SDS011;16028;42.642;23.310;2023-08-01T14:11:20;4.40;;;2.80;;
28910;SDS011;16028;42.642;23.310;2023-08-01T14:13:48;5.85;;;2.50;;
28910;SDS011;16028;42.642;23.310;2023-08-01T14:16:15;3.03;;;2.42;;
28910;SDS011;16028;42.642;23.310;2023-08-01T14:18:42;5.30;;;2.70;;
28910;SDS011;16028;42.642;23.310;2023-08-01T14:21:09;3.10;;;2.80;;
28910;SDS011;16028;42.642;23.310;2023-08-01T14:23:37;5.25;;;2.72;;
28910;SDS011;16028;42.642;23.310;2023-08-01T14:26:05;4.10;;;3.10;;
28910;SDS011;16028;42.642;23.310;2023-08-01T14:28:32;3.72;;;2.90;;
28910;SDS011;16028;42.642;23.310;2023-08-01T14:30:59;3.33;;;2.60;;
28910;SDS011;16028;42.642;23.310;2023-08-01T14:33:26;2.80;;;2.60;;
28910;SDS011;16028;42.642;23.310;2023-08-01T14:35:53;5.57;;;3.53;;
28910;SDS011;16028;42.642;23.310;2023-08-01T14:38:20;4.35;;;3.00;;
28910;SDS011;16028;42.642;23.310;2023-08-01T14:40:49;4.60;;;2.67;;
28910;SDS011;16028;42.642;23.310;2023-08-01T14:43:15;5.78;;;3.35;;
28910;SDS011;16028;42.642;23.310;2023-08-01T14:45:42;3.35;;;2.83;;
28910;SDS011;16028;42.642;23.310;2023-08-01T14:48:09;6.25;;;3.08;;
28910;SDS011;16028;42.642;23.310;2023-08-01T14:50:37;3.33;;;3.03;;
28910;SDS011;16028;42.642;23.310;2023-08-01T14:53:04;3.60;;;2.95;;
28910;SDS011;16028;42.642;23.310;2023-08-01T14:55:32;3.00;;;2.72;;
28910;SDS011;16028;42.642;23.310;2023-08-01T14:58:01;4.65;;;3.22;;
28910;SDS011;16028;42.642;23.310;2023-08-01T15:00:28;3.40;;;3.10;;
28910;SDS011;16028;42.642;23.310;2023-08-01T15:02:54;3.75;;;2.70;;
28910;SDS011;16028;42.642;23.310;2023-08-01T15:05:21;6.28;;;3.10;;
28910;SDS011;16028;42.642;23.310;2023-08-01T15:07:50;2.95;;;2.67;;
28910;SDS011;16028;42.642;23.310;2023-08-01T15:10:17;3.08;;;2.78;;
28910;SDS011;16028;42.642;23.310;2023-08-01T15:12:44;2.88;;;2.65;;
28910;SDS011;16028;42.642;23.310;2023-08-01T15:15:12;6.05;;;5.00;;
28910;SDS011;16028;42.642;23.310;2023-08-01T15:17:39;3.47;;;3.17;;
28910;SDS011;16028;42.642;23.310;2023-08-01T15:20:06;4.85;;;3.70;;
28910;SDS011;16028;42.642;23.310;2023-08-01T15:22:34;4.97;;;3.75;;
28910;SDS011;16028;42.642;23.310;2023-08-01T15:25:01;6.13;;;3.63;;
28910;SDS011;16028;42.642;23.310;2023-08-01T15:27:28;3.65;;;3.05;;
28910;SDS011;16028;42.642;23.310;2023-08-01T15:29:55;5.80;;;3.63;;
28910;SDS011;16028;42.642;23.310;2023-08-01T15:32:23;3.90;;;3.33;;
28910;SDS011;16028;42.642;23.310;2023-08-01T15:34:50;4.40;;;3.42;;
28910;SDS011;16028;42.642;23.310;2023-08-01T15:37:17;4.05;;;3.22;;
28910;SDS011;16028;42.642;23.310;2023-08-01T15:39:43;4.38;;;3.20;;
28910;SDS011;16028;42.642;23.310;2023-08-01T15:42:10;4.70;;;3.10;;
28910;SDS011;16028;42.642;23.310;2023-08-01T15:44:37;3.80;;;3.50;;
28910;SDS011;16028;42.642;23.310;2023-08-01T15:47:04;3.72;;;3.33;;
28910;SDS011;16028;42.642;23.310;2023-08-01T15:49:32;3.17;;;2.97;;
28910;SDS011;16028;42.642;23.310;2023-08-01T15:51:59;3.20;;;2.83;;
28910;SDS011;16028;42.642;23.310;2023-08-01T15:54:26;3.30;;;3.00;;
28910;SDS011;16028;42.642;23.310;2023-08-01T15:56:54;4.65;;;2.90;;
28910;SDS011;16028;42.642;23.310;2023-08-01T15:59:20;5.93;;;3.03;;
28910;SDS011;16028;42.642;23.310;2023-08-01T16:01:47;3.90;;;3.10;;
28910;SDS011;16028;42.642;23.310;2023-08-01T16:04:14;5.22;;;2.83;;
28910;SDS011;16028;42.642;23.310;2023-08-01T16:06:42;4.18;;;3.13;;
28910;SDS011;16028;42.642;23.310;2023-08-01T16:09:09;3.92;;;3.22;;
28910;SDS011;16028;42.642;23.310;2023-08-01T16:11:36;3.72;;;3.10;;
28910;SDS011;16028;42.642;23.310;2023-08-01T16:14:03;6.00;;;3.45;;
28910;SDS011;16028;42.642;23.310;2023-08-01T16:16:30;5.70;;;3.90;;
28910;SDS011;16028;42.642;23.310;2023-08-01T16:18:57;5.00;;;3.78;;